sensor_id;sensor_type;location;lat;lon;timestamp;pressure;altitude;pressure_sealevel;temperature;humidity
41202;BME280;26936;50.524;8.684;2023-03-12T00:01:22;99066.06;;;-2.00;100.00
41202;BME280;26936;50.524;8.684;2023-03-12T00:03:48;99075.16;;;-1.99;100.00
41202;BME280;26936;50.524;8.684;2023-03-12T00:06:15;99073.63;;;-1.93;100.00
41202;BME280;26936;50.524;8.684;2023-03-12T00:08:40;99071.69;;;-1.93;100.00
41202;BME280;26936;50.524;8.684;2023-03-12T00:11:11;99075.63;;;-1.90;100.00
41202;BME280;26936;50.524;8.684;2023-03-12T00:13:37;99072.50;;;-1.89;100.00
41202;BME280;26936;50.524;8.684;2023-03-12T00:16:11;99072.44;;;-1.92;100.00
41202;BME280;26936;50.524;8.684;2023-03-12T00:18:37;99079.63;;;-1.88;100.00
41202;BME280;26936;50.524;8.684;2023-03-12T00:21:03;99074.91;;;-1.84;100.00
41202;BME280;26936;50.524;8.684;2023-03-12T00:23:29;99071.00;;;-1.79;100.00
41202;BME280;26936;50.524;8.684;2023-03-12T00:26:03;99074.22;;;-1.74;100.00
41202;BME280;26936;50.524;8.684;2023-03-12T00:28:29;99080.56;;;-1.73;100.00
41202;BME280;26936;50.524;8.684;2023-03-12T00:30:54;99082.13;;;-1.72;100.00
41202;BME280;26936;50.524;8.684;2023-03-12T00:33:19;99075.84;;;-1.69;100.00
41202;BME280;26936;50.524;8.684;2023-03-12T00:35:45;99080.63;;;-1.66;100.00
41202;BME280;26936;50.524;8.684;2023-03-12T00:38:10;99073.56;;;-1.64;100.00
41202;BME280;26936;50.524;8.684;2023-03-12T00:40:35;99073.56;;;-1.64;100.00
41202;BME280;26936;50.524;8.684;2023-03-12T00:43:01;99061.75;;;-1.61;100.00
41202;BME280;26936;50.524;8.684;2023-03-12T00:45:26;99066.47;;;-1.61;100.00
41202;BME280;26936;50.524;8.684;2023-03-12T00:47:51;99068.81;;;-1.63;100.00
41202;BME280;26936;50.524;8.684;2023-03-12T00:50:17;99066.47;;;-1.61;100.00
41202;BME280;26936;50.524;8.684;2023-03-12T00:52:43;99061.38;;;-1.59;100.00
41202;BME280;26936;50.524;8.684;2023-03-12T00:55:08;99064.59;;;-1.54;100.00
41202;BME280;26936;50.524;8.684;2023-03-12T00:57:34;99064.59;;;-1.50;100.00
41202;BME280;26936;50.524;8.684;2023-03-12T00:59:59;99059.09;;;-1.47;100.00
41202;BME280;26936;50.524;8.684;2023-03-12T01:02:24;99052.81;;;-1.44;100.00
41202;BME280;26936;50.524;8.684;2023-03-12T01:04:49;99054.41;;;-1.43;100.00
41202;BME280;26936;50.524;8.684;2023-03-12T01:07:15;99053.19;;;-1.49;100.00
41202;BME280;26936;50.524;8.684;2023-03-12T01:09:40;99059.53;;;-1.45;100.00
41202;BME280;26936;50.524;8.684;2023-03-12T01:12:06;99061.91;;;-1.43;100.00
41202;BME280;26936;50.524;8.684;2023-03-12T01:14:31;99062.72;;;-1.43;100.00
41202;BME280;26936;50.524;8.684;2023-03-12T01:16:56;99054.41;;;-1.43;100.00
41202;BME280;26936;50.524;8.684;2023-03-12T01:19:21;99057.19;;;-1.43;100.00
41202;BME280;26936;50.524;8.684;2023-03-12T01:21:47;99050.84;;;-1.43;100.00
41202;BME280;26936;50.524;8.684;2023-03-12T01:24:12;99055.19;;;-1.46;100.00
41202;BME280;26936;50.524;8.684;2023-03-12T01:26:37;99057.56;;;-1.44;100.00
41202;BME280;26936;50.524;8.684;2023-03-12T01:29:03;99051.28;;;-1.41;100.00
41202;BME280;26936;50.524;8.684;2023-03-12T01:31:28;99051.34;;;-1.34;100.00
41202;BME280;26936;50.524;8.684;2023-03-12T01:33:53;99054.94;;;-1.26;100.00
41202;BME280;26936;50.524;8.684;2023-03-12T01:36:24;99054.59;;;-1.21;100.00
41202;BME280;26936;50.524;8.684;2023-03-12T01:38:50;99060.97;;;-1.14;100.00
41202;BME280;26936;50.524;8.684;2023-03-12T01:41:16;99052.69;;;-1.10;100.00
41202;BME280;26936;50.524;8.684;2023-03-12T01:43:42;99057.06;;;-1.09;100.00
41202;BME280;26936;50.524;8.684;2023-03-12T01:46:26;99050.78;;;-1.06;100.00
41202;BME280;26936;50.524;8.684;2023-03-12T01:52:10;99042.53;;;-0.96;100.00
41202;BME280;26936;50.524;8.684;2023-03-12T01:54:41;99041.03;;;-0.86;100.00
41202;BME280;26936;50.524;8.684;2023-03-12T01:57:21;99040.63;;;-0.88;100.00
41202;BME280;26936;50.524;8.684;2023-03-12T01:59:57;99041.78;;;-0.89;100.00
41202;BME280;26936;50.524;8.684;2023-03-12T02:02:24;99033.84;;;-0.98;100.00
41202;BME280;26936;50.524;8.684;2023-03-12T02:05:02;99032.66;;;-1.00;100.00
41202;BME280;26936;50.524;8.684;2023-03-12T02:07:32;99028.69;;;-0.99;100.00
41202;BME280;26936;50.524;8.684;2023-03-12T02:09:57;99028.00;;;-0.86;100.00
41202;BME280;26936;50.524;8.684;2023-03-12T02:12:23;99018.97;;;-0.79;100.00
41202;BME280;26936;50.524;8.684;2023-03-12T02:14:48;99022.84;;;-0.87;100.00
41202;BME280;26936;50.524;8.684;2023-03-12T02:17:14;99021.66;;;-0.93;100.00
41202;BME280;26936;50.524;8.684;2023-03-12T02:19:46;99025.69;;;-0.77;100.00
41202;BME280;26936;50.524;8.684;2023-03-12T02:22:15;99030.00;;;-0.83;100.00
41202;BME280;26936;50.524;8.684;2023-03-12T02:24:48;99023.75;;;-0.69;100.00
41202;BME280;26936;50.524;8.684;2023-03-12T02:27:17;99022.19;;;-0.67;100.00
41202;BME280;26936;50.524;8.684;2023-03-12T02:29:44;99026.94;;;-0.67;100.00
41202;BME280;26936;50.524;8.684;2023-03-12T02:32:17;99026.47;;;-0.76;100.00
41202;BME280;26936;50.524;8.684;2023-03-12T02:34:44;99015.38;;;-0.80;100.00
41202;BME280;26936;50.524;8.684;2023-03-12T02:37:09;99020.91;;;-0.80;100.00
41202;BME280;26936;50.524;8.684;2023-03-12T02:39:34;99015.47;;;-0.69;100.00
41202;BME280;26936;50.524;8.684;2023-03-12T02:42:00;99024.47;;;-0.79;100.00
41202;BME280;26936;50.524;8.684;2023-03-12T02:44:29;99015.38;;;-0.80;100.00
41202;BME280;26936;50.524;8.684;2023-03-12T02:46:57;99021.75;;;-0.76;100.00
41202;BME280;26936;50.524;8.684;2023-03-12T02:49:25;99011.13;;;-0.70;100.00
41202;BME280;26936;50.524;8.684;2023-03-12T02:51:52;99008.00;;;-0.58;100.00
41202;BME280;26936;50.524;8.684;2023-03-12T02:54:19;99010.75;;;-0.62;100.00
41202;BME280;26936;50.524;8.684;2023-03-12T02:56:45;99000.50;;;-0.61;100.00
41202;BME280;26936;50.524;8.684;2023-03-12T02:59:11;99003.28;;;-0.54;100.00
41202;BME280;26936;50.524;8.684;2023-03-12T03:01:37;99003.22;;;-0.65;100.00
41202;BME280;26936;50.524;8.684;2023-03-12T03:04:04;98999.72;;;-0.58;100.00
41202;BME280;26936;50.524;8.684;2023-03-12T03:06:30;99006.81;;;-0.61;100.00
41202;BME280;26936;50.524;8.684;2023-03-12T03:08:57;98994.13;;;-0.72;100.00
41202;BME280;26936;50.524;8.684;2023-03-12T03:11:22;98990.94;;;-0.74;100.00
41202;BME280;26936;50.524;8.684;2023-03-12T03:13:52;98993.72;;;-0.71;100.00
41202;BME280;26936;50.524;8.684;2023-03-12T03:16:19;98999.19;;;-0.81;100.00
41202;BME280;26936;50.524;8.684;2023-03-12T03:18:44;98986.56;;;-0.82;100.00
41202;BME280;26936;50.524;8.684;2023-03-12T03:21:10;98984.59;;;-0.82;100.00
41202;BME280;26936;50.524;8.684;2023-03-12T03:23:41;98996.44;;;-0.78;100.00
41202;BME280;26936;50.524;8.684;2023-03-12T03:26:06;98987.38;;;-0.75;100.00
41202;BME280;26936;50.524;8.684;2023-03-12T03:28:31;98992.16;;;-0.68;100.00
41202;BME280;26936;50.524;8.684;2023-03-12T03:30:57;98989.41;;;-0.65;100.00
41202;BME280;26936;50.524;8.684;2023-03-12T03:33:26;98987.06;;;-0.59;100.00
41202;BME280;26936;50.524;8.684;2023-03-12T03:35:51;98997.34;;;-0.60;100.00
41202;BME280;26936;50.524;8.684;2023-03-12T03:38:19;99000.53;;;-0.54;100.00
41202;BME280;26936;50.524;8.684;2023-03-12T03:40:45;99007.63;;;-0.53;100.00
41202;BME280;26936;50.524;8.684;2023-03-12T03:43:10;98992.25;;;-0.51;100.00
41202;BME280;26936;50.524;8.684;2023-03-12T03:45:35;98989.88;;;-0.49;100.00
41202;BME280;26936;50.524;8.684;2023-03-12T03:48:00;98985.13;;;-0.48;100.00
41202;BME280;26936;50.524;8.684;2023-03-12T03:50:26;98998.59;;;-0.43;100.00
41202;BME280;26936;50.524;8.684;2023-03-12T03:52:51;98984.38;;;-0.42;100.00
41202;BME280;26936;50.524;8.684;2023-03-12T03:55:16;98982.78;;;-0.43;100.00
41202;BME280;26936;50.524;8.684;2023-03-12T03:57:42;98982.03;;;-0.36;100.00
41202;BME280;26936;50.524;8.684;2023-03-12T04:00:07;98989.13;;;-0.35;100.00
41202;BME280;26936;50.524;8.684;2023-03-12T04:02:34;98984.38;;;-0.42;100.00
41202;BME280;26936;50.524;8.684;2023-03-12T04:05:00;98982.78;;;-0.43;100.00
41202;BME280;26936;50.524;8.684;2023-03-12T04:07:25;98987.16;;;-0.38;100.00
41202;BME280;26936;50.524;8.684;2023-03-12T04:09:51;98999.78;;;-0.44;100.00
41202;BME280;26936;50.524;8.684;2023-03-12T04:12:16;98997.78;;;-0.44;100.00
41202;BME280;26936;50.524;8.684;2023-03-12T04:14:42;99000.97;;;-0.42;100.00
41202;BME280;26936;50.524;8.684;2023-03-12T04:17:08;99009.25;;;-0.45;100.00
41202;BME280;26936;50.524;8.684;2023-03-12T04:19:33;99013.59;;;-0.48;100.00
41202;BME280;26936;50.524;8.684;2023-03-12T04:21:59;99012.00;;;-0.45;100.00
41202;BME280;26936;50.524;8.684;2023-03-12T04:24:24;98990.72;;;-0.41;100.00
41202;BME280;26936;50.524;8.684;2023-03-12T04:26:50;98997.41;;;-0.42;100.00
41202;BME280;26936;50.524;8.684;2023-03-12T04:29:16;98995.03;;;-0.40;100.00
41202;BME280;26936;50.524;8.684;2023-03-12T04:31:41;98992.66;;;-0.42;100.00
41202;BME280;26936;50.524;8.684;2023-03-12T04:34:06;98983.19;;;-0.37;100.00
41202;BME280;26936;50.524;8.684;2023-03-12T04:36:32;98973.31;;;-0.42;100.00
41202;BME280;26936;50.524;8.684;2023-03-12T04:38:57;98980.09;;;-0.25;100.00
41202;BME280;26936;50.524;8.684;2023-03-12T04:41:22;98975.34;;;-0.21;99.84
41202;BME280;26936;50.524;8.684;2023-03-12T04:43:48;98979.69;;;-0.13;98.59
41202;BME280;26936;50.524;8.684;2023-03-12T04:46:13;98976.16;;;-0.14;100.00
41202;BME280;26936;50.524;8.684;2023-03-12T04:48:38;98965.09;;;-0.07;98.15
41202;BME280;26936;50.524;8.684;2023-03-12T04:51:04;98966.69;;;-0.06;97.89
41202;BME280;26936;50.524;8.684;2023-03-12T04:53:30;98957.56;;;-0.10;98.84
41202;BME280;26936;50.524;8.684;2023-03-12T04:55:55;98956.03;;;-0.04;98.51
41202;BME280;26936;50.524;8.684;2023-03-12T04:58:21;98950.44;;;-0.18;99.40
41202;BME280;26936;50.524;8.684;2023-03-12T05:00:47;98944.13;;;-0.18;99.28
41202;BME280;26936;50.524;8.684;2023-03-12T05:03:13;98946.91;;;-0.18;99.36
41202;BME280;26936;50.524;8.684;2023-03-12T05:05:38;98942.16;;;-0.18;99.35
41202;BME280;26936;50.524;8.684;2023-03-12T05:08:04;98938.16;;;-0.31;99.98
41202;BME280;26936;50.524;8.684;2023-03-12T05:10:29;98931.06;;;-0.18;99.60
41202;BME280;26936;50.524;8.684;2023-03-12T05:12:55;98937.78;;;-0.26;100.00
41202;BME280;26936;50.524;8.684;2023-03-12T05:15:20;98934.22;;;-0.19;99.86
41202;BME280;26936;50.524;8.684;2023-03-12T05:17:46;98937.75;;;-0.33;100.00
41202;BME280;26936;50.524;8.684;2023-03-12T05:20:12;98946.06;;;-0.36;100.00
41202;BME280;26936;50.524;8.684;2023-03-12T05:22:38;98934.22;;;-0.23;100.00
41202;BME280;26936;50.524;8.684;2023-03-12T05:25:03;98935.00;;;-0.29;100.00
41202;BME280;26936;50.524;8.684;2023-03-12T05:27:30;98931.06;;;-0.32;100.00
41202;BME280;26936;50.524;8.684;2023-03-12T05:29:55;98931.88;;;-0.21;99.92
41202;BME280;26936;50.524;8.684;2023-03-12T05:32:20;98929.13;;;-0.03;98.95
41202;BME280;26936;50.524;8.684;2023-03-12T05:34:45;98931.06;;;-0.18;99.36
41202;BME280;26936;50.524;8.684;2023-03-12T05:37:11;98927.91;;;-0.16;99.37
41202;BME280;26936;50.524;8.684;2023-03-12T05:39:36;98925.53;;;-0.21;99.44
41202;BME280;26936;50.524;8.684;2023-03-12T05:42:02;98924.78;;;-0.08;98.89
41202;BME280;26936;50.524;8.684;2023-03-12T05:44:27;98936.22;;;-0.13;98.76
41202;BME280;26936;50.524;8.684;2023-03-12T05:46:53;98931.88;;;-0.17;99.74
41202;BME280;26936;50.524;8.684;2023-03-12T05:49:19;98935.06;;;-0.12;98.97
41202;BME280;26936;50.524;8.684;2023-03-12T05:51:46;98933.84;;;-0.14;99.19
41202;BME280;26936;50.524;8.684;2023-03-12T05:54:12;98934.66;;;-0.10;98.78
41202;BME280;26936;50.524;8.684;2023-03-12T05:56:37;98935.47;;;-0.03;98.53
41202;BME280;26936;50.524;8.684;2023-03-12T05:59:03;98928.72;;;-0.12;98.65
41202;BME280;26936;50.524;8.684;2023-03-12T06:01:29;98927.53;;;-0.08;99.20
41202;BME280;26936;50.524;8.684;2023-03-12T06:03:55;98933.47;;;-0.13;99.02
41202;BME280;26936;50.524;8.684;2023-03-12T06:06:20;98936.63;;;-0.07;99.42
41202;BME280;26936;50.524;8.684;2023-03-12T06:08:46;98931.50;;;-0.05;99.54
41202;BME280;26936;50.524;8.684;2023-03-12T06:11:11;98932.28;;;-0.05;99.79
41202;BME280;26936;50.524;8.684;2023-03-12T06:13:37;98929.91;;;-0.06;100.00
41202;BME280;26936;50.524;8.684;2023-03-12T06:16:08;98923.22;;;-0.05;100.00
41202;BME280;26936;50.524;8.684;2023-03-12T06:18:35;98921.19;;;-0.08;100.00
41202;BME280;26936;50.524;8.684;2023-03-12T06:21:13;98921.63;;;0.15;100.00
41202;BME280;26936;50.524;8.684;2023-03-12T06:23:39;98924.00;;;0.10;100.00
41202;BME280;26936;50.524;8.684;2023-03-12T06:26:05;98922.81;;;0.25;100.00
41202;BME280;26936;50.524;8.684;2023-03-12T06:28:30;98911.75;;;0.14;100.00
41202;BME280;26936;50.524;8.684;2023-03-12T06:30:56;98915.69;;;0.17;99.70
41202;BME280;26936;50.524;8.684;2023-03-12T06:33:21;98906.59;;;0.23;99.06
41202;BME280;26936;50.524;8.684;2023-03-12T06:35:46;98912.13;;;0.30;98.01
41202;BME280;26936;50.524;8.684;2023-03-12T06:38:12;98913.72;;;0.24;98.22
41202;BME280;26936;50.524;8.684;2023-03-12T06:40:37;98906.97;;;0.46;96.35
41202;BME280;26936;50.524;8.684;2023-03-12T06:43:03;98903.00;;;0.54;95.24
41202;BME280;26936;50.524;8.684;2023-03-12T06:45:28;98907.78;;;0.54;94.84
41202;BME280;26936;50.524;8.684;2023-03-12T06:47:53;98907.75;;;0.61;94.00
41202;BME280;26936;50.524;8.684;2023-03-12T06:50:19;98904.16;;;0.81;93.03
41202;BME280;26936;50.524;8.684;2023-03-12T06:52:44;98897.47;;;0.68;93.68
41202;BME280;26936;50.524;8.684;2023-03-12T06:55:09;98889.13;;;0.75;93.55
41202;BME280;26936;50.524;8.684;2023-03-12T06:57:34;98887.56;;;0.74;94.58
41202;BME280;26936;50.524;8.684;2023-03-12T07:00:00;98890.66;;;0.90;93.24
41202;BME280;26936;50.524;8.684;2023-03-12T07:02:25;98890.31;;;0.85;92.68
41202;BME280;26936;50.524;8.684;2023-03-12T07:04:50;98891.88;;;0.75;93.46
41202;BME280;26936;50.524;8.684;2023-03-12T07:07:16;98891.47;;;0.91;92.11
41202;BME280;26936;50.524;8.684;2023-03-12T07:09:42;98889.88;;;0.90;93.59
41202;BME280;26936;50.524;8.684;2023-03-12T07:12:07;98904.50;;;1.01;93.57
41202;BME280;26936;50.524;8.684;2023-03-12T07:14:33;98903.31;;;0.98;94.07
41202;BME280;26936;50.524;8.684;2023-03-12T07:16:58;98885.47;;;1.03;92.36
41202;BME280;26936;50.524;8.684;2023-03-12T07:19:26;98885.88;;;1.05;91.85
41202;BME280;26936;50.524;8.684;2023-03-12T07:21:52;98883.50;;;1.07;91.14
41202;BME280;26936;50.524;8.684;2023-03-12T07:24:17;98885.44;;;1.13;91.53
41202;BME280;26936;50.524;8.684;2023-03-12T07:26:42;98888.63;;;1.12;90.53
41202;BME280;26936;50.524;8.684;2023-03-12T07:29:08;98892.22;;;1.09;90.47
41202;BME280;26936;50.524;8.684;2023-03-12T07:31:33;98886.25;;;1.10;89.44
41202;BME280;26936;50.524;8.684;2023-03-12T07:33:58;98901.34;;;0.99;89.28
41202;BME280;26936;50.524;8.684;2023-03-12T07:36:24;98892.63;;;0.93;90.18
41202;BME280;26936;50.524;8.684;2023-03-12T07:38:49;98889.09;;;0.89;90.80
41202;BME280;26936;50.524;8.684;2023-03-12T07:41:14;98896.22;;;0.83;92.53
41202;BME280;26936;50.524;8.684;2023-03-12T07:43:40;98883.97;;;0.77;92.65
41202;BME280;26936;50.524;8.684;2023-03-12T07:46:05;98882.41;;;0.76;94.44
41202;BME280;26936;50.524;8.684;2023-03-12T07:48:30;98889.91;;;0.86;95.09
41202;BME280;26936;50.524;8.684;2023-03-12T07:50:55;98887.56;;;0.74;97.71
41202;BME280;26936;50.524;8.684;2023-03-12T07:53:21;98893.09;;;0.85;99.14
41202;BME280;26936;50.524;8.684;2023-03-12T07:55:46;98891.53;;;0.73;100.00
41202;BME280;26936;50.524;8.684;2023-03-12T07:58:13;98893.91;;;0.68;100.00
41202;BME280;26936;50.524;8.684;2023-03-12T08:00:39;98910.91;;;0.66;100.00
41202;BME280;26936;50.524;8.684;2023-03-12T08:03:04;98896.25;;;0.73;100.00
41202;BME280;26936;50.524;8.684;2023-03-12T08:05:30;98893.91;;;0.64;100.00
41202;BME280;26936;50.524;8.684;2023-03-12T08:07:56;98892.72;;;0.55;100.00
41202;BME280;26936;50.524;8.684;2023-03-12T08:10:21;98889.91;;;0.69;100.00
41202;BME280;26936;50.524;8.684;2023-03-12T08:12:47;98879.63;;;0.76;100.00
41202;BME280;26936;50.524;8.684;2023-03-12T08:15:13;98879.22;;;0.81;100.00
41202;BME280;26936;50.524;8.684;2023-03-12T08:17:38;98886.72;;;0.84;100.00
41202;BME280;26936;50.524;8.684;2023-03-12T08:20:05;98881.94;;;0.95;100.00
41202;BME280;26936;50.524;8.684;2023-03-12T08:22:34;98876.78;;;0.97;100.00
41202;BME280;26936;50.524;8.684;2023-03-12T08:24:59;98885.50;;;0.99;100.00
41202;BME280;26936;50.524;8.684;2023-03-12T08:27:24;98887.84;;;1.08;100.00
41202;BME280;26936;50.524;8.684;2023-03-12T08:29:50;98885.47;;;1.03;100.00
41202;BME280;26936;50.524;8.684;2023-03-12T08:32:15;98895.38;;;1.04;100.00
41202;BME280;26936;50.524;8.684;2023-03-12T08:34:40;98883.88;;;1.09;100.00
41202;BME280;26936;50.524;8.684;2023-03-12T08:37:05;98893.28;;;1.32;99.69
41202;BME280;26936;50.524;8.684;2023-03-12T08:39:31;98896.88;;;1.29;98.79
41202;BME280;26936;50.524;8.684;2023-03-12T08:41:56;98900.03;;;1.31;98.89
41202;BME280;26936;50.524;8.684;2023-03-12T08:44:23;98894.06;;;1.36;98.56
41202;BME280;26936;50.524;8.684;2023-03-12T08:46:49;98888.91;;;1.38;99.00
41202;BME280;26936;50.524;8.684;2023-03-12T08:49:15;98880.59;;;1.38;98.93
41202;BME280;26936;50.524;8.684;2023-03-12T08:51:40;98862.34;;;1.41;99.32
41202;BME280;26936;50.524;8.684;2023-03-12T08:54:05;98863.06;;;1.52;99.49
41202;BME280;26936;50.524;8.684;2023-03-12T08:56:31;98859.44;;;1.59;98.94
41202;BME280;26936;50.524;8.684;2023-03-12T08:58:57;98862.19;;;1.69;99.84
41202;BME280;26936;50.524;8.684;2023-03-12T09:01:23;98860.56;;;1.72;100.00
41202;BME280;26936;50.524;8.684;2023-03-12T09:03:48;98858.63;;;1.65;100.00
41202;BME280;26936;50.524;8.684;2023-03-12T09:06:16;98862.19;;;1.69;100.00
41202;BME280;26936;50.524;8.684;2023-03-12T09:08:43;98862.19;;;1.69;100.00
41202;BME280;26936;50.524;8.684;2023-03-12T09:11:11;98849.56;;;1.58;100.00
41202;BME280;26936;50.524;8.684;2023-03-12T09:13:37;98858.25;;;1.63;100.00
41202;BME280;26936;50.524;8.684;2023-03-12T09:16:03;98854.56;;;1.77;100.00
41202;BME280;26936;50.524;8.684;2023-03-12T09:18:30;98856.97;;;1.75;100.00
41202;BME280;26936;50.524;8.684;2023-03-12T09:20:56;98866.63;;;1.56;100.00
41202;BME280;26936;50.524;8.684;2023-03-12T09:23:22;98878.44;;;1.64;100.00
41202;BME280;26936;50.524;8.684;2023-03-12T09:25:48;98876.09;;;1.62;100.00
41202;BME280;26936;50.524;8.684;2023-03-12T09:28:13;98864.56;;;1.67;100.00
41202;BME280;26936;50.524;8.684;2023-03-12T09:30:39;98857.34;;;1.80;100.00
41202;BME280;26936;50.524;8.684;2023-03-12T09:33:05;98858.91;;;1.81;100.00
41202;BME280;26936;50.524;8.684;2023-03-12T09:35:30;98854.56;;;1.77;100.00
41202;BME280;26936;50.524;8.684;2023-03-12T09:37:56;98850.56;;;1.85;100.00
41202;BME280;26936;50.524;8.684;2023-03-12T09:40:23;98841.88;;;1.79;100.00
41202;BME280;26936;50.524;8.684;2023-03-12T09:42:52;98837.50;;;1.78;100.00
41202;BME280;26936;50.524;8.684;2023-03-12T09:45:30;98851.81;;;1.73;100.00
41202;BME280;26936;50.524;8.684;2023-03-12T09:47:59;98834.31;;;1.80;100.00
41202;BME280;26936;50.524;8.684;2023-03-12T09:50:40;98848.25;;;1.76;100.00
41202;BME280;26936;50.524;8.684;2023-03-12T09:55:44;98839.81;;;1.90;100.00
41202;BME280;26936;50.524;8.684;2023-03-12T09:58:32;98844.53;;;1.97;100.00
41202;BME280;26936;50.524;8.684;2023-03-12T10:01:25;98847.31;;;1.97;100.00
41202;BME280;26936;50.524;8.684;2023-03-12T10:07:01;98853.94;;;2.10;100.00
41202;BME280;26936;50.524;8.684;2023-03-12T10:18:30;98858.97;;;2.25;100.00
41202;BME280;26936;50.524;8.684;2023-03-12T10:26:17;98857.63;;;2.40;100.00
41202;BME280;26936;50.524;8.684;2023-03-12T10:28:50;98861.63;;;2.39;100.00
41202;BME280;26936;50.524;8.684;2023-03-12T10:31:22;98852.91;;;2.37;100.00
41202;BME280;26936;50.524;8.684;2023-03-12T10:33:54;98848.78;;;2.52;100.00
41202;BME280;26936;50.524;8.684;2023-03-12T10:36:24;98846.00;;;2.56;100.00
41202;BME280;26936;50.524;8.684;2023-03-12T10:38:51;98851.09;;;2.61;100.00
41202;BME280;26936;50.524;8.684;2023-03-12T10:41:21;98848.22;;;2.68;100.00
41202;BME280;26936;50.524;8.684;2023-03-12T10:43:47;98848.97;;;2.75;100.00
41202;BME280;26936;50.524;8.684;2023-03-12T10:48:38;98843.91;;;2.63;100.00
41202;BME280;26936;50.524;8.684;2023-03-12T10:51:05;98838.16;;;2.81;100.00
41202;BME280;26936;50.524;8.684;2023-03-12T10:53:32;98842.19;;;2.76;100.00
41202;BME280;26936;50.524;8.684;2023-03-12T10:56:06;98837.28;;;2.88;100.00
41202;BME280;26936;50.524;8.684;2023-03-12T11:01:05;98847.91;;;2.96;100.00
41202;BME280;26936;50.524;8.684;2023-03-12T11:03:31;98841.69;;;2.85;100.00
41202;BME280;26936;50.524;8.684;2023-03-12T11:06:00;98841.34;;;2.79;100.00
41202;BME280;26936;50.524;8.684;2023-03-12T11:08:31;98844.47;;;2.85;100.00
41202;BME280;26936;50.524;8.684;2023-03-12T11:10:58;98844.31;;;2.99;100.00
41202;BME280;26936;50.524;8.684;2023-03-12T11:13:26;98844.38;;;2.92;100.00
41202;BME280;26936;50.524;8.684;2023-03-12T11:15:52;98853.53;;;2.93;100.00
41202;BME280;26936;50.524;8.684;2023-03-12T11:18:32;98839.56;;;2.96;100.00
41202;BME280;26936;50.524;8.684;2023-03-12T11:24:28;98836.31;;;3.05;100.00
41202;BME280;26936;50.524;8.684;2023-03-12T11:27:04;98838.41;;;3.27;100.00
41202;BME280;26936;50.524;8.684;2023-03-12T11:29:35;98835.69;;;3.50;100.00
41202;BME280;26936;50.524;8.684;2023-03-12T11:32:13;98829.19;;;3.60;100.00
41202;BME280;26936;50.524;8.684;2023-03-12T11:34:40;98832.00;;;3.60;100.00
41202;BME280;26936;50.524;8.684;2023-03-12T11:42:52;98826.22;;;3.44;100.00
41202;BME280;26936;50.524;8.684;2023-03-12T11:45:26;98828.88;;;3.55;100.00
41202;BME280;26936;50.524;8.684;2023-03-12T11:48:15;98842.16;;;3.44;100.00
41202;BME280;26936;50.524;8.684;2023-03-12T11:53:55;98835.41;;;3.41;100.00
41202;BME280;26936;50.524;8.684;2023-03-12T11:56:46;98833.47;;;3.38;100.00
41202;BME280;26936;50.524;8.684;2023-03-12T12:07:12;98826.56;;;3.50;100.00
41202;BME280;26936;50.524;8.684;2023-03-12T12:10:12;98817.53;;;3.42;100.00
41202;BME280;26936;50.524;8.684;2023-03-12T12:13:05;98814.69;;;3.46;100.00
41202;BME280;26936;50.524;8.684;2023-03-12T12:15:41;98801.66;;;3.39;100.00
41202;BME280;26936;50.524;8.684;2023-03-12T12:18:39;98807.53;;;3.45;100.00
41202;BME280;26936;50.524;8.684;2023-03-12T12:23:54;98796.59;;;3.57;100.00
41202;BME280;26936;50.524;8.684;2023-03-12T12:29:09;98778.47;;;3.72;100.00
41202;BME280;26936;50.524;8.684;2023-03-12T12:39:53;98775.66;;;3.99;100.00
41202;BME280;26936;50.524;8.684;2023-03-12T12:42:26;98782.09;;;3.96;100.00
41202;BME280;26936;50.524;8.684;2023-03-12T12:44:57;98776.09;;;3.97;100.00
41202;BME280;26936;50.524;8.684;2023-03-12T12:48:06;98783.84;;;4.09;100.00
41202;BME280;26936;50.524;8.684;2023-03-12T12:50:36;98774.75;;;4.05;100.00
41202;BME280;26936;50.524;8.684;2023-03-12T12:53:21;98771.72;;;3.96;100.00
41202;BME280;26936;50.524;8.684;2023-03-12T12:56:12;98773.78;;;4.15;100.00
41202;BME280;26936;50.524;8.684;2023-03-12T12:59:03;98778.47;;;4.22;100.00
41202;BME280;26936;50.524;8.684;2023-03-12T13:01:30;98771.97;;;4.29;100.00
41202;BME280;26936;50.524;8.684;2023-03-12T13:04:03;98775.34;;;4.16;100.00
41202;BME280;26936;50.524;8.684;2023-03-12T13:06:52;98780.28;;;4.32;100.00
41202;BME280;26936;50.524;8.684;2023-03-12T13:09:21;98786.38;;;4.47;100.00
41202;BME280;26936;50.524;8.684;2023-03-12T13:11:47;98772.38;;;4.50;100.00
41202;BME280;26936;50.524;8.684;2023-03-12T13:14:20;98782.25;;;4.55;100.00
41202;BME280;26936;50.524;8.684;2023-03-12T13:16:46;98780.38;;;4.48;100.00
41202;BME280;26936;50.524;8.684;2023-03-12T13:21:44;98777.31;;;4.62;100.00
41202;BME280;26936;50.524;8.684;2023-03-12T13:24:21;98785.06;;;4.94;100.00
41202;BME280;26936;50.524;8.684;2023-03-12T13:29:38;98780.66;;;4.93;100.00
41202;BME280;26936;50.524;8.684;2023-03-12T13:32:07;98771.16;;;5.10;100.00
41202;BME280;26936;50.524;8.684;2023-03-12T13:34:42;98767.13;;;5.11;100.00
41202;BME280;26936;50.524;8.684;2023-03-12T13:37:26;98773.38;;;4.99;100.00
41202;BME280;26936;50.524;8.684;2023-03-12T13:39:52;98787.84;;;4.94;100.00
41202;BME280;26936;50.524;8.684;2023-03-12T13:42:34;98780.84;;;4.86;100.00
41202;BME280;26936;50.524;8.684;2023-03-12T13:45:20;98778.31;;;4.91;100.00
41202;BME280;26936;50.524;8.684;2023-03-12T13:47:46;98779.53;;;4.90;100.00
41202;BME280;26936;50.524;8.684;2023-03-12T13:50:13;98786.25;;;4.93;100.00
41202;BME280;26936;50.524;8.684;2023-03-12T13:52:45;98781.03;;;4.95;100.00
41202;BME280;26936;50.524;8.684;2023-03-12T13:55:24;98771.78;;;4.98;100.00
41202;BME280;26936;50.524;8.684;2023-03-12T13:58:05;98776.59;;;4.97;100.00
41202;BME280;26936;50.524;8.684;2023-03-12T14:00:45;98766.16;;;5.01;100.00
41202;BME280;26936;50.524;8.684;2023-03-12T14:03:23;98761.72;;;5.39;100.00
41202;BME280;26936;50.524;8.684;2023-03-12T14:06:07;98764.19;;;5.18;100.00
41202;BME280;26936;50.524;8.684;2023-03-12T14:08:49;98755.22;;;5.10;100.00
41202;BME280;26936;50.524;8.684;2023-03-12T14:11:36;98765.66;;;5.06;100.00